sensor_id;sensor_type;location;lat;lon;timestamp;P1;durP1;ratioP1;P2;durP2;ratioP2
13927;SDS011;7036;50.834;4.718;2023-03-23T00:01:10;4.50;;;2.85;;
13927;SDS011;7036;50.834;4.718;2023-03-23T00:03:37;2.97;;;2.47;;
13927;SDS011;7036;50.834;4.718;2023-03-23T00:06:06;2.55;;;2.08;;
13927;SDS011;7036;50.834;4.718;2023-03-23T00:08:39;2.63;;;2.27;;
13927;SDS011;7036;50.834;4.718;2023-03-23T00:11:06;3.20;;;2.40;;
13927;SDS011;7036;50.834;4.718;2023-03-23T00:13:40;3.30;;;2.28;;
13927;SDS011;7036;50.834;4.718;2023-03-23T00:16:09;4.37;;;2.50;;
13927;SDS011;7036;50.834;4.718;2023-03-23T00:18:36;2.27;;;2.07;;
13927;SDS011;7036;50.834;4.718;2023-03-23T00:21:03;3.10;;;2.15;;
13927;SDS011;7036;50.834;4.718;2023-03-23T00:23:31;3.67;;;1.80;;
13927;SDS011;7036;50.834;4.718;2023-03-23T00:25:58;2.50;;;2.30;;
13927;SDS011;7036;50.834;4.718;2023-03-23T00:28:26;3.10;;;2.17;;
13927;SDS011;7036;50.834;4.718;2023-03-23T00:30:57;2.93;;;2.63;;
13927;SDS011;7036;50.834;4.718;2023-03-23T00:33:24;3.57;;;2.30;;
13927;SDS011;7036;50.834;4.718;2023-03-23T00:35:53;3.80;;;2.20;;
13927;SDS011;7036;50.834;4.718;2023-03-23T00:38:23;2.63;;;2.15;;
13927;SDS011;7036;50.834;4.718;2023-03-23T00:40:47;3.15;;;2.60;;
13927;SDS011;7036;50.834;4.718;2023-03-23T00:43:17;3.40;;;1.83;;
13927;SDS011;7036;50.834;4.718;2023-03-23T00:45:43;3.50;;;2.53;;
13927;SDS011;7036;50.834;4.718;2023-03-23T00:48:10;2.45;;;2.05;;
13927;SDS011;7036;50.834;4.718;2023-03-23T00:50:37;3.13;;;2.42;;
13927;SDS011;7036;50.834;4.718;2023-03-23T00:53:05;2.15;;;1.95;;
13927;SDS011;7036;50.834;4.718;2023-03-23T00:55:32;3.77;;;2.30;;
13927;SDS011;7036;50.834;4.718;2023-03-23T00:57:59;2.38;;;2.10;;
13927;SDS011;7036;50.834;4.718;2023-03-23T01:00:26;3.00;;;2.45;;
13927;SDS011;7036;50.834;4.718;2023-03-23T01:02:54;2.67;;;2.25;;
13927;SDS011;7036;50.834;4.718;2023-03-23T01:05:21;3.13;;;1.98;;
13927;SDS011;7036;50.834;4.718;2023-03-23T01:07:48;2.20;;;1.98;;
13927;SDS011;7036;50.834;4.718;2023-03-23T01:10:16;2.83;;;2.15;;
13927;SDS011;7036;50.834;4.718;2023-03-23T01:12:44;2.83;;;2.08;;
13927;SDS011;7036;50.834;4.718;2023-03-23T01:15:14;4.35;;;2.28;;
13927;SDS011;7036;50.834;4.718;2023-03-23T01:17:40;3.00;;;2.40;;
13927;SDS011;7036;50.834;4.718;2023-03-23T01:20:07;3.38;;;1.90;;
13927;SDS011;7036;50.834;4.718;2023-03-23T01:22:35;2.58;;;2.13;;
13927;SDS011;7036;50.834;4.718;2023-03-23T01:25:03;2.88;;;2.10;;
13927;SDS011;7036;50.834;4.718;2023-03-23T01:27:29;2.37;;;1.70;;
13927;SDS011;7036;50.834;4.718;2023-03-23T01:29:56;4.25;;;2.33;;
13927;SDS011;7036;50.834;4.718;2023-03-23T01:32:24;2.17;;;1.92;;
13927;SDS011;7036;50.834;4.718;2023-03-23T01:34:51;2.20;;;2.00;;
13927;SDS011;7036;50.834;4.718;2023-03-23T01:37:19;2.08;;;1.92;;
13927;SDS011;7036;50.834;4.718;2023-03-23T01:39:46;2.63;;;1.87;;
13927;SDS011;7036;50.834;4.718;2023-03-23T01:42:13;1.85;;;1.70;;
13927;SDS011;7036;50.834;4.718;2023-03-23T01:47:10;1.93;;;1.63;;
13927;SDS011;7036;50.834;4.718;2023-03-23T01:49:37;4.00;;;2.38;;
13927;SDS011;7036;50.834;4.718;2023-03-23T01:52:06;2.50;;;1.98;;
13927;SDS011;7036;50.834;4.718;2023-03-23T01:54:34;3.43;;;1.67;;
13927;SDS011;7036;50.834;4.718;2023-03-23T01:57:07;2.78;;;2.20;;
13927;SDS011;7036;50.834;4.718;2023-03-23T01:59:33;2.33;;;1.97;;
13927;SDS011;7036;50.834;4.718;2023-03-23T02:02:01;3.15;;;1.95;;
13927;SDS011;7036;50.834;4.718;2023-03-23T02:04:28;2.67;;;1.90;;
13927;SDS011;7036;50.834;4.718;2023-03-23T02:06:55;2.55;;;1.80;;
13927;SDS011;7036;50.834;4.718;2023-03-23T02:09:22;2.17;;;1.98;;
13927;SDS011;7036;50.834;4.718;2023-03-23T02:11:50;3.00;;;1.80;;
13927;SDS011;7036;50.834;4.718;2023-03-23T02:14:17;2.75;;;2.00;;
13927;SDS011;7036;50.834;4.718;2023-03-23T02:17:01;2.38;;;1.80;;
13927;SDS011;7036;50.834;4.718;2023-03-23T02:22:22;2.30;;;2.10;;
13927;SDS011;7036;50.834;4.718;2023-03-23T02:25:04;2.13;;;1.93;;
13927;SDS011;7036;50.834;4.718;2023-03-23T02:36:23;2.53;;;1.73;;
13927;SDS011;7036;50.834;4.718;2023-03-23T02:39:12;2.53;;;1.60;;
13927;SDS011;7036;50.834;4.718;2023-03-23T02:41:45;2.67;;;1.80;;
13927;SDS011;7036;50.834;4.718;2023-03-23T02:44:09;2.00;;;1.80;;
13927;SDS011;7036;50.834;4.718;2023-03-23T02:46:36;1.92;;;1.60;;
13927;SDS011;7036;50.834;4.718;2023-03-23T02:49:04;2.33;;;1.70;;
13927;SDS011;7036;50.834;4.718;2023-03-23T02:51:31;2.03;;;1.83;;
13927;SDS011;7036;50.834;4.718;2023-03-23T02:53:58;3.03;;;2.03;;
13927;SDS011;7036;50.834;4.718;2023-03-23T02:56:25;2.10;;;1.60;;
13927;SDS011;7036;50.834;4.718;2023-03-23T02:58:53;1.65;;;1.55;;
13927;SDS011;7036;50.834;4.718;2023-03-23T03:03:53;1.70;;;1.30;;
13927;SDS011;7036;50.834;4.718;2023-03-23T03:06:33;2.28;;;1.85;;
13927;SDS011;7036;50.834;4.718;2023-03-23T03:11:42;2.17;;;1.45;;
13927;SDS011;7036;50.834;4.718;2023-03-23T03:14:09;1.90;;;1.50;;
13927;SDS011;7036;50.834;4.718;2023-03-23T03:16:37;1.63;;;1.52;;
13927;SDS011;7036;50.834;4.718;2023-03-23T03:19:04;2.67;;;1.73;;
13927;SDS011;7036;50.834;4.718;2023-03-23T03:21:45;1.97;;;1.50;;
13927;SDS011;7036;50.834;4.718;2023-03-23T03:24:12;2.90;;;1.85;;
13927;SDS011;7036;50.834;4.718;2023-03-23T03:26:39;1.98;;;1.77;;
13927;SDS011;7036;50.834;4.718;2023-03-23T03:29:06;2.20;;;1.98;;
13927;SDS011;7036;50.834;4.718;2023-03-23T03:31:36;3.25;;;1.95;;
13927;SDS011;7036;50.834;4.718;2023-03-23T03:34:00;6.20;;;1.88;;
13927;SDS011;7036;50.834;4.718;2023-03-23T03:36:29;2.08;;;1.88;;
13927;SDS011;7036;50.834;4.718;2023-03-23T03:38:55;1.60;;;1.50;;
13927;SDS011;7036;50.834;4.718;2023-03-23T03:41:22;2.78;;;1.60;;
13927;SDS011;7036;50.834;4.718;2023-03-23T03:43:49;3.60;;;1.90;;
13927;SDS011;7036;50.834;4.718;2023-03-23T03:46:16;2.08;;;1.88;;
13927;SDS011;7036;50.834;4.718;2023-03-23T03:48:44;3.05;;;1.70;;
13927;SDS011;7036;50.834;4.718;2023-03-23T03:51:11;2.00;;;1.33;;
13927;SDS011;7036;50.834;4.718;2023-03-23T03:53:38;4.30;;;1.77;;
13927;SDS011;7036;50.834;4.718;2023-03-23T03:56:06;4.18;;;1.92;;
13927;SDS011;7036;50.834;4.718;2023-03-23T03:58:33;1.92;;;1.63;;
13927;SDS011;7036;50.834;4.718;2023-03-23T04:01:00;3.17;;;1.80;;
13927;SDS011;7036;50.834;4.718;2023-03-23T04:03:27;2.40;;;1.80;;
13927;SDS011;7036;50.834;4.718;2023-03-23T04:05:54;1.50;;;1.35;;
13927;SDS011;7036;50.834;4.718;2023-03-23T04:08:22;2.33;;;1.80;;
13927;SDS011;7036;50.834;4.718;2023-03-23T04:10:49;2.17;;;1.67;;
13927;SDS011;7036;50.834;4.718;2023-03-23T04:13:16;2.20;;;2.00;;
13927;SDS011;7036;50.834;4.718;2023-03-23T04:15:44;3.58;;;1.60;;
13927;SDS011;7036;50.834;4.718;2023-03-23T04:18:10;2.05;;;1.70;;
13927;SDS011;7036;50.834;4.718;2023-03-23T04:20:38;2.22;;;1.75;;
13927;SDS011;7036;50.834;4.718;2023-03-23T04:23:05;1.93;;;1.50;;
13927;SDS011;7036;50.834;4.718;2023-03-23T04:25:32;1.95;;;1.75;;
13927;SDS011;7036;50.834;4.718;2023-03-23T04:27:59;2.30;;;1.70;;
13927;SDS011;7036;50.834;4.718;2023-03-23T04:30:28;1.65;;;1.55;;
13927;SDS011;7036;50.834;4.718;2023-03-23T04:32:54;1.97;;;1.50;;
13927;SDS011;7036;50.834;4.718;2023-03-23T04:35:23;3.42;;;1.67;;
13927;SDS011;7036;50.834;4.718;2023-03-23T04:37:49;1.85;;;1.45;;
13927;SDS011;7036;50.834;4.718;2023-03-23T04:40:16;1.65;;;1.50;;
13927;SDS011;7036;50.834;4.718;2023-03-23T04:42:43;2.03;;;1.80;;
13927;SDS011;7036;50.834;4.718;2023-03-23T04:45:17;1.30;;;1.20;;
13927;SDS011;7036;50.834;4.718;2023-03-23T04:48:00;2.00;;;1.47;;
13927;SDS011;7036;50.834;4.718;2023-03-23T04:50:42;3.40;;;1.90;;
13927;SDS011;7036;50.834;4.718;2023-03-23T04:53:12;1.63;;;1.50;;
13927;SDS011;7036;50.834;4.718;2023-03-23T04:55:39;1.30;;;1.20;;
13927;SDS011;7036;50.834;4.718;2023-03-23T04:58:06;3.75;;;1.52;;
13927;SDS011;7036;50.834;4.718;2023-03-23T05:00:34;1.50;;;1.38;;
13927;SDS011;7036;50.834;4.718;2023-03-23T05:03:02;1.92;;;1.67;;
13927;SDS011;7036;50.834;4.718;2023-03-23T05:05:29;1.83;;;1.42;;
13927;SDS011;7036;50.834;4.718;2023-03-23T05:07:56;1.50;;;1.17;;
13927;SDS011;7036;50.834;4.718;2023-03-23T05:10:23;2.35;;;1.35;;
13927;SDS011;7036;50.834;4.718;2023-03-23T05:12:52;1.77;;;1.60;;
13927;SDS011;7036;50.834;4.718;2023-03-23T05:15:17;1.65;;;1.25;;
13927;SDS011;7036;50.834;4.718;2023-03-23T05:17:45;1.38;;;1.27;;
13927;SDS011;7036;50.834;4.718;2023-03-23T05:20:13;1.27;;;1.17;;
13927;SDS011;7036;50.834;4.718;2023-03-23T05:22:39;1.50;;;1.40;;
13927;SDS011;7036;50.834;4.718;2023-03-23T05:25:06;3.47;;;1.33;;
13927;SDS011;7036;50.834;4.718;2023-03-23T05:27:33;2.03;;;1.23;;
13927;SDS011;7036;50.834;4.718;2023-03-23T05:30:00;2.42;;;1.58;;
13927;SDS011;7036;50.834;4.718;2023-03-23T05:32:28;2.60;;;1.55;;
13927;SDS011;7036;50.834;4.718;2023-03-23T05:34:55;2.00;;;1.60;;
13927;SDS011;7036;50.834;4.718;2023-03-23T05:37:23;1.25;;;1.15;;
13927;SDS011;7036;50.834;4.718;2023-03-23T05:39:50;2.13;;;1.40;;
13927;SDS011;7036;50.834;4.718;2023-03-23T05:42:17;2.17;;;1.23;;
13927;SDS011;7036;50.834;4.718;2023-03-23T05:44:45;2.60;;;1.40;;
13927;SDS011;7036;50.834;4.718;2023-03-23T05:47:13;1.58;;;1.30;;
13927;SDS011;7036;50.834;4.718;2023-03-23T05:49:40;2.63;;;1.33;;
13927;SDS011;7036;50.834;4.718;2023-03-23T05:52:07;1.55;;;1.23;;
13927;SDS011;7036;50.834;4.718;2023-03-23T05:54:34;1.85;;;1.30;;
13927;SDS011;7036;50.834;4.718;2023-03-23T05:57:02;4.55;;;1.20;;
13927;SDS011;7036;50.834;4.718;2023-03-23T05:59:29;2.72;;;1.20;;
13927;SDS011;7036;50.834;4.718;2023-03-23T06:01:56;1.55;;;1.20;;
13927;SDS011;7036;50.834;4.718;2023-03-23T06:04:23;1.63;;;1.33;;
13927;SDS011;7036;50.834;4.718;2023-03-23T06:06:51;2.85;;;1.48;;
13927;SDS011;7036;50.834;4.718;2023-03-23T06:09:20;1.23;;;1.13;;
13927;SDS011;7036;50.834;4.718;2023-03-23T06:11:47;1.63;;;1.20;;
13927;SDS011;7036;50.834;4.718;2023-03-23T06:14:14;1.27;;;1.17;;
13927;SDS011;7036;50.834;4.718;2023-03-23T06:16:41;2.33;;;1.45;;
13927;SDS011;7036;50.834;4.718;2023-03-23T06:19:09;2.25;;;1.63;;
13927;SDS011;7036;50.834;4.718;2023-03-23T06:21:36;1.45;;;1.25;;
13927;SDS011;7036;50.834;4.718;2023-03-23T06:24:03;2.65;;;1.40;;
13927;SDS011;7036;50.834;4.718;2023-03-23T06:26:33;1.45;;;1.13;;
13927;SDS011;7036;50.834;4.718;2023-03-23T06:29:00;1.33;;;1.20;;
13927;SDS011;7036;50.834;4.718;2023-03-23T06:31:41;2.17;;;1.40;;
13927;SDS011;7036;50.834;4.718;2023-03-23T06:34:07;1.73;;;1.42;;
13927;SDS011;7036;50.834;4.718;2023-03-23T06:36:35;2.28;;;1.30;;
13927;SDS011;7036;50.834;4.718;2023-03-23T06:39:03;2.42;;;1.45;;
13927;SDS011;7036;50.834;4.718;2023-03-23T06:41:32;3.08;;;1.50;;
13927;SDS011;7036;50.834;4.718;2023-03-23T06:43:58;1.77;;;1.23;;
13927;SDS011;7036;50.834;4.718;2023-03-23T06:46:25;4.13;;;1.40;;
13927;SDS011;7036;50.834;4.718;2023-03-23T06:48:53;3.30;;;1.40;;
13927;SDS011;7036;50.834;4.718;2023-03-23T06:51:21;3.53;;;1.95;;
13927;SDS011;7036;50.834;4.718;2023-03-23T06:53:50;1.73;;;1.50;;
13927;SDS011;7036;50.834;4.718;2023-03-23T06:56:19;1.88;;;1.48;;
13927;SDS011;7036;50.834;4.718;2023-03-23T06:58:46;2.70;;;1.30;;
13927;SDS011;7036;50.834;4.718;2023-03-23T07:01:14;4.10;;;1.60;;
13927;SDS011;7036;50.834;4.718;2023-03-23T07:03:42;1.55;;;1.20;;
13927;SDS011;7036;50.834;4.718;2023-03-23T07:06:10;3.65;;;1.65;;
13927;SDS011;7036;50.834;4.718;2023-03-23T07:08:39;4.97;;;1.70;;
13927;SDS011;7036;50.834;4.718;2023-03-23T07:11:06;2.90;;;1.58;;
13927;SDS011;7036;50.834;4.718;2023-03-23T07:13:34;1.90;;;1.30;;
13927;SDS011;7036;50.834;4.718;2023-03-23T07:16:03;1.65;;;1.40;;
13927;SDS011;7036;50.834;4.718;2023-03-23T07:18:28;2.92;;;1.45;;
13927;SDS011;7036;50.834;4.718;2023-03-23T07:20:55;2.47;;;1.20;;
13927;SDS011;7036;50.834;4.718;2023-03-23T07:23:23;2.78;;;1.70;;
13927;SDS011;7036;50.834;4.718;2023-03-23T07:25:51;3.65;;;1.38;;
13927;SDS011;7036;50.834;4.718;2023-03-23T07:28:19;2.28;;;1.20;;
13927;SDS011;7036;50.834;4.718;2023-03-23T07:30:47;4.40;;;1.65;;
13927;SDS011;7036;50.834;4.718;2023-03-23T07:33:15;2.72;;;1.45;;
13927;SDS011;7036;50.834;4.718;2023-03-23T07:35:43;1.85;;;1.25;;
13927;SDS011;7036;50.834;4.718;2023-03-23T07:38:11;2.83;;;1.48;;
13927;SDS011;7036;50.834;4.718;2023-03-23T07:40:39;2.25;;;1.45;;
13927;SDS011;7036;50.834;4.718;2023-03-23T07:43:07;2.10;;;1.67;;
13927;SDS011;7036;50.834;4.718;2023-03-23T07:45:34;2.20;;;1.40;;
13927;SDS011;7036;50.834;4.718;2023-03-23T07:48:02;2.92;;;1.52;;
13927;SDS011;7036;50.834;4.718;2023-03-23T07:50:30;2.10;;;1.60;;
13927;SDS011;7036;50.834;4.718;2023-03-23T07:52:58;2.55;;;1.30;;
13927;SDS011;7036;50.834;4.718;2023-03-23T07:55:26;5.25;;;1.80;;
13927;SDS011;7036;50.834;4.718;2023-03-23T07:57:54;2.60;;;1.58;;
13927;SDS011;7036;50.834;4.718;2023-03-23T08:00:23;2.47;;;1.30;;
13927;SDS011;7036;50.834;4.718;2023-03-23T08:02:51;1.88;;;1.48;;
13927;SDS011;7036;50.834;4.718;2023-03-23T08:05:18;2.35;;;1.40;;
13927;SDS011;7036;50.834;4.718;2023-03-23T08:07:45;2.83;;;1.50;;
13927;SDS011;7036;50.834;4.718;2023-03-23T08:10:13;3.05;;;1.45;;
13927;SDS011;7036;50.834;4.718;2023-03-23T08:12:41;3.97;;;1.52;;
13927;SDS011;7036;50.834;4.718;2023-03-23T08:15:10;4.28;;;1.83;;
13927;SDS011;7036;50.834;4.718;2023-03-23T08:17:36;5.55;;;2.00;;
13927;SDS011;7036;50.834;4.718;2023-03-23T08:20:04;4.22;;;2.00;;
13927;SDS011;7036;50.834;4.718;2023-03-23T08:22:31;5.63;;;2.00;;
13927;SDS011;7036;50.834;4.718;2023-03-23T08:24:59;6.10;;;1.65;;
13927;SDS011;7036;50.834;4.718;2023-03-23T08:27:26;10.32;;;2.25;;
13927;SDS011;7036;50.834;4.718;2023-03-23T08:29:53;6.53;;;2.13;;
13927;SDS011;7036;50.834;4.718;2023-03-23T08:32:20;6.60;;;2.15;;
13927;SDS011;7036;50.834;4.718;2023-03-23T08:34:48;6.70;;;2.03;;
13927;SDS011;7036;50.834;4.718;2023-03-23T08:37:15;2.22;;;1.55;;
13927;SDS011;7036;50.834;4.718;2023-03-23T08:39:46;4.03;;;1.70;;
13927;SDS011;7036;50.834;4.718;2023-03-23T08:42:13;4.20;;;1.80;;
13927;SDS011;7036;50.834;4.718;2023-03-23T08:44:41;4.78;;;1.75;;
13927;SDS011;7036;50.834;4.718;2023-03-23T08:47:09;5.40;;;1.75;;
13927;SDS011;7036;50.834;4.718;2023-03-23T08:49:37;8.98;;;1.90;;
13927;SDS011;7036;50.834;4.718;2023-03-23T08:52:05;4.18;;;1.60;;
13927;SDS011;7036;50.834;4.718;2023-03-23T08:54:33;3.97;;;1.90;;
13927;SDS011;7036;50.834;4.718;2023-03-23T08:57:00;2.45;;;1.65;;
13927;SDS011;7036;50.834;4.718;2023-03-23T08:59:27;2.67;;;1.77;;
13927;SDS011;7036;50.834;4.718;2023-03-23T09:01:54;8.60;;;2.25;;
13927;SDS011;7036;50.834;4.718;2023-03-23T09:04:22;5.20;;;1.58;;
13927;SDS011;7036;50.834;4.718;2023-03-23T09:06:50;3.90;;;1.50;;
13927;SDS011;7036;50.834;4.718;2023-03-23T09:09:18;9.77;;;1.83;;
13927;SDS011;7036;50.834;4.718;2023-03-23T09:11:46;5.65;;;2.08;;
13927;SDS011;7036;50.834;4.718;2023-03-23T09:14:14;4.03;;;1.77;;
13927;SDS011;7036;50.834;4.718;2023-03-23T09:16:42;2.78;;;1.80;;
13927;SDS011;7036;50.834;4.718;2023-03-23T09:19:10;6.55;;;1.73;;
13927;SDS011;7036;50.834;4.718;2023-03-23T09:21:37;6.32;;;1.60;;
13927;SDS011;7036;50.834;4.718;2023-03-23T09:24:05;4.25;;;1.60;;
13927;SDS011;7036;50.834;4.718;2023-03-23T09:26:33;2.83;;;1.30;;
13927;SDS011;7036;50.834;4.718;2023-03-23T09:29:00;2.35;;;1.33;;
13927;SDS011;7036;50.834;4.718;2023-03-23T09:31:28;4.40;;;1.70;;
13927;SDS011;7036;50.834;4.718;2023-03-23T09:33:56;2.45;;;1.10;;
13927;SDS011;7036;50.834;4.718;2023-03-23T09:36:23;4.90;;;1.70;;
13927;SDS011;7036;50.834;4.718;2023-03-23T09:38:51;3.17;;;1.60;;
13927;SDS011;7036;50.834;4.718;2023-03-23T09:49:21;3.50;;;1.35;;
13927;SDS011;7036;50.834;4.718;2023-03-23T09:51:51;2.72;;;1.73;;
13927;SDS011;7036;50.834;4.718;2023-03-23T09:56:45;3.80;;;1.63;;
13927;SDS011;7036;50.834;4.718;2023-03-23T09:59:24;3.47;;;1.65;;
13927;SDS011;7036;50.834;4.718;2023-03-23T10:01:50;2.30;;;1.27;;
13927;SDS011;7036;50.834;4.718;2023-03-23T10:04:21;3.20;;;1.85;;
13927;SDS011;7036;50.834;4.718;2023-03-23T10:07:12;4.10;;;1.50;;
13927;SDS011;7036;50.834;4.718;2023-03-23T10:09:41;4.40;;;1.73;;
13927;SDS011;7036;50.834;4.718;2023-03-23T10:12:25;2.22;;;1.33;;
13927;SDS011;7036;50.834;4.718;2023-03-23T10:15:17;3.78;;;1.52;;
13927;SDS011;7036;50.834;4.718;2023-03-23T10:17:46;4.70;;;1.67;;
13927;SDS011;7036;50.834;4.718;2023-03-23T10:23:24;3.38;;;1.35;;
13927;SDS011;7036;50.834;4.718;2023-03-23T10:25:48;6.30;;;1.70;;
13927;SDS011;7036;50.834;4.718;2023-03-23T10:28:16;5.72;;;1.80;;
13927;SDS011;7036;50.834;4.718;2023-03-23T10:30:41;4.35;;;1.50;;
13927;SDS011;7036;50.834;4.718;2023-03-23T10:33:15;4.53;;;1.60;;
13927;SDS011;7036;50.834;4.718;2023-03-23T10:35:50;4.35;;;1.30;;
13927;SDS011;7036;50.834;4.718;2023-03-23T10:38:23;6.15;;;1.52;;
13927;SDS011;7036;50.834;4.718;2023-03-23T10:40:52;3.75;;;1.30;;
13927;SDS011;7036;50.834;4.718;2023-03-23T10:43:19;4.82;;;1.25;;
13927;SDS011;7036;50.834;4.718;2023-03-23T10:45:49;4.45;;;1.13;;
13927;SDS011;7036;50.834;4.718;2023-03-23T10:48:25;2.10;;;1.27;;
13927;SDS011;7036;50.834;4.718;2023-03-23T10:50:51;3.35;;;1.50;;
13927;SDS011;7036;50.834;4.718;2023-03-23T10:54:04;2.58;;;1.25;;
13927;SDS011;7036;50.834;4.718;2023-03-23T10:56:04;6.82;;;1.67;;
13927;SDS011;7036;50.834;4.718;2023-03-23T10:58:33;6.63;;;1.50;;
13927;SDS011;7036;50.834;4.718;2023-03-23T11:00:59;4.90;;;1.38;;
13927;SDS011;7036;50.834;4.718;2023-03-23T11:03:38;2.60;;;1.05;;
13927;SDS011;7036;50.834;4.718;2023-03-23T11:06:27;3.75;;;1.60;;
13927;SDS011;7036;50.834;4.718;2023-03-23T11:09:01;2.70;;;1.17;;
13927;SDS011;7036;50.834;4.718;2023-03-23T11:11:30;1.77;;;0.80;;
13927;SDS011;7036;50.834;4.718;2023-03-23T11:13:58;3.60;;;1.45;;
13927;SDS011;7036;50.834;4.718;2023-03-23T11:16:28;4.15;;;1.40;;
13927;SDS011;7036;50.834;4.718;2023-03-23T11:19:00;4.53;;;1.52;;
13927;SDS011;7036;50.834;4.718;2023-03-23T11:21:27;2.67;;;1.33;;
13927;SDS011;7036;50.834;4.718;2023-03-23T11:23:55;3.92;;;1.00;;
13927;SDS011;7036;50.834;4.718;2023-03-23T11:28:53;1.77;;;1.10;;
13927;SDS011;7036;50.834;4.718;2023-03-23T11:31:23;2.20;;;1.20;;
13927;SDS011;7036;50.834;4.718;2023-03-23T11:34:00;4.53;;;1.65;;
13927;SDS011;7036;50.834;4.718;2023-03-23T11:36:33;1.80;;;1.05;;
13927;SDS011;7036;50.834;4.718;2023-03-23T11:39:02;1.27;;;0.90;;
13927;SDS011;7036;50.834;4.718;2023-03-23T11:41:31;2.25;;;1.20;;
13927;SDS011;7036;50.834;4.718;2023-03-23T11:43:56;2.15;;;1.50;;
13927;SDS011;7036;50.834;4.718;2023-03-23T11:49:21;2.83;;;1.25;;
13927;SDS011;7036;50.834;4.718;2023-03-23T11:51:49;2.08;;;1.15;;
13927;SDS011;7036;50.834;4.718;2023-03-23T11:54:33;2.40;;;1.10;;
13927;SDS011;7036;50.834;4.718;2023-03-23T11:57:00;2.58;;;1.30;;
13927;SDS011;7036;50.834;4.718;2023-03-23T11:59:29;1.85;;;1.17;;
13927;SDS011;7036;50.834;4.718;2023-03-23T12:05:03;3.80;;;1.55;;
13927;SDS011;7036;50.834;4.718;2023-03-23T12:15:53;2.85;;;1.42;;
13927;SDS011;7036;50.834;4.718;2023-03-23T12:21:20;2.75;;;1.48;;
13927;SDS011;7036;50.834;4.718;2023-03-23T12:24:13;3.63;;;1.52;;
13927;SDS011;7036;50.834;4.718;2023-03-23T12:27:10;1.52;;;1.00;;
13927;SDS011;7036;50.834;4.718;2023-03-23T12:29:48;4.07;;;1.30;;
13927;SDS011;7036;50.834;4.718;2023-03-23T12:32:32;2.08;;;1.15;;
13927;SDS011;7036;50.834;4.718;2023-03-23T12:37:58;2.25;;;1.02;;
13927;SDS011;7036;50.834;4.718;2023-03-23T12:42:59;2.22;;;1.30;;
13927;SDS011;7036;50.834;4.718;2023-03-23T12:48:31;7.72;;;2.08;;
13927;SDS011;7036;50.834;4.718;2023-03-23T12:53:52;6.65;;;1.13;;
13927;SDS011;7036;50.834;4.718;2023-03-23T12:58:48;3.20;;;1.50;;
13927;SDS011;7036;50.834;4.718;2023-03-23T13:01:16;2.90;;;1.40;;
13927;SDS011;7036;50.834;4.718;2023-03-23T13:03:43;3.60;;;1.40;;
13927;SDS011;7036;50.834;4.718;2023-03-23T13:06:12;5.68;;;1.58;;
13927;SDS011;7036;50.834;4.718;2023-03-23T13:08:55;2.53;;;1.20;;
13927;SDS011;7036;50.834;4.718;2023-03-23T13:11:22;4.63;;;1.50;;
13927;SDS011;7036;50.834;4.718;2023-03-23T13:13:52;2.53;;;1.10;;
13927;SDS011;7036;50.834;4.718;2023-03-23T13:16:22;4.70;;;1.75;;
13927;SDS011;7036;50.834;4.718;2023-03-23T13:21:41;4.75;;;1.67;;
13927;SDS011;7036;50.834;4.718;2023-03-23T13:24:10;2.17;;;1.15;;
13927;SDS011;7036;50.834;4.718;2023-03-23T13:26:37;2.30;;;1.23;;
13927;SDS011;7036;50.834;4.718;2023-03-23T13:29:09;2.88;;;1.50;;
13927;SDS011;7036;50.834;4.718;2023-03-23T13:31:37;2.42;;;1.42;;
13927;SDS011;7036;50.834;4.718;2023-03-23T13:36:51;2.13;;;1.25;;
13927;SDS011;7036;50.834;4.718;2023-03-23T13:49:54;5.40;;;1.50;;
13927;SDS011;7036;50.834;4.718;2023-03-23T13:52:23;2.80;;;1.25;;
13927;SDS011;7036;50.834;4.718;2023-03-23T13:57:54;4.68;;;1.58;;
13927;SDS011;7036;50.834;4.718;2023-03-23T14:03:04;5.55;;;1.75;;
13927;SDS011;7036;50.834;4.718;2023-03-23T14:05:44;2.88;;;1.55;;
13927;SDS011;7036;50.834;4.718;2023-03-23T14:08:21;4.88;;;1.63;;
13927;SDS011;7036;50.834;4.718;2023-03-23T14:10:51;2.00;;;1.60;;
13927;SDS011;7036;50.834;4.718;2023-03-23T14:13:20;4.72;;;1.60;;
13927;SDS011;7036;50.834;4.718;2023-03-23T14:15:57;2.40;;;1.80;;
13927;SDS011;7036;50.834;4.718;2023-03-23T14:18:34;5.40;;;1.60;;
13927;SDS011;7036;50.834;4.718;2023-03-23T14:21:04;2.00;;;1.25;;
13927;SDS011;7036;50.834;4.718;2023-03-23T14:23:32;2.47;;;1.40;;
13927;SDS011;7036;50.834;4.718;2023-03-23T14:26:01;2.92;;;1.33;;
13927;SDS011;7036;50.834;4.718;2023-03-23T14:28:27;4.07;;;1.73;;
13927;SDS011;7036;50.834;4.718;2023-03-23T14:30:53;2.75;;;1.80;;
13927;SDS011;7036;50.834;4.718;2023-03-23T14:33:21;3.10;;;1.75;;
13927;SDS011;7036;50.834;4.718;2023-03-23T14:35:49;4.63;;;2.30;;
13927;SDS011;7036;50.834;4.718;2023-03-23T14:38:16;3.58;;;1.60;;
13927;SDS011;7036;50.834;4.718;2023-03-23T14:40:44;3.35;;;1.67;;
13927;SDS011;7036;50.834;4.718;2023-03-23T14:43:12;3.08;;;1.60;;
13927;SDS011;7036;50.834;4.718;2023-03-23T14:45:38;2.00;;;1.15;;
13927;SDS011;7036;50.834;4.718;2023-03-23T14:48:05;2.70;;;1.23;;
13927;SDS011;7036;50.834;4.718;2023-03-23T14:50:37;2.33;;;1.60;;
13927;SDS011;7036;50.834;4.718;2023-03-23T14:53:11;4.97;;;1.85;;
13927;SDS011;7036;50.834;4.718;2023-03-23T14:55:31;3.90;;;1.70;;
13927;SDS011;7036;50.834;4.718;2023-03-23T14:58:12;3.60;;;1.33;;
13927;SDS011;7036;50.834;4.718;2023-03-23T15:00:41;1.88;;;1.67;;
13927;SDS011;7036;50.834;4.718;2023-03-23T15:03:16;3.13;;;1.67;;
13927;SDS011;7036;50.834;4.718;2023-03-23T15:05:35;3.03;;;1.67;;
13927;SDS011;7036;50.834;4.718;2023-03-23T15:08:12;3.53;;;1.50;;
13927;SDS011;7036;50.834;4.718;2023-03-23T15:10:38;2.58;;;1.63;;
13927;SDS011;7036;50.834;4.718;2023-03-23T15:13:05;3.67;;;1.70;;
13927;SDS011;7036;50.834;4.718;2023-03-23T15:15:34;2.75;;;1.83;;
13927;SDS011;7036;50.834;4.718;2023-03-23T15:18:01;3.35;;;1.67;;
13927;SDS011;7036;50.834;4.718;2023-03-23T15:20:31;2.42;;;1.50;;
13927;SDS011;7036;50.834;4.718;2023-03-23T15:22:57;1.63;;;1.33;;
13927;SDS011;7036;50.834;4.718;2023-03-23T15:30:37;2.83;;;1.83;;
13927;SDS011;7036;50.834;4.718;2023-03-23T15:33:08;2.97;;;1.80;;
13927;SDS011;7036;50.834;4.718;2023-03-23T15:35:36;2.72;;;1.80;;
13927;SDS011;7036;50.834;4.718;2023-03-23T15:38:12;2.28;;;1.55;;
13927;SDS011;7036;50.834;4.718;2023-03-23T15:40:35;3.63;;;1.60;;
13927;SDS011;7036;50.834;4.718;2023-03-23T15:43:08;2.88;;;1.70;;
13927;SDS011;7036;50.834;4.718;2023-03-23T15:45:59;2.50;;;1.40;;
13927;SDS011;7036;50.834;4.718;2023-03-23T15:48:48;3.05;;;1.67;;
13927;SDS011;7036;50.834;4.718;2023-03-23T15:51:17;2.72;;;1.65;;
13927;SDS011;7036;50.834;4.718;2023-03-23T15:53:44;2.10;;;1.40;;
13927;SDS011;7036;50.834;4.718;2023-03-23T15:56:12;2.33;;;1.48;;
13927;SDS011;7036;50.834;4.718;2023-03-23T15:58:39;2.67;;;1.65;;
13927;SDS011;7036;50.834;4.718;2023-03-23T16:01:19;3.10;;;1.90;;
13927;SDS011;7036;50.834;4.718;2023-03-23T16:03:49;3.25;;;1.70;;
13927;SDS011;7036;50.834;4.718;2023-03-23T16:06:13;3.05;;;1.73;;
13927;SDS011;7036;50.834;4.718;2023-03-23T16:08:40;5.10;;;1.90;;
13927;SDS011;7036;50.834;4.718;2023-03-23T16:11:12;5.60;;;1.52;;
13927;SDS011;7036;50.834;4.718;2023-03-23T16:13:38;3.10;;;1.60;;
13927;SDS011;7036;50.834;4.718;2023-03-23T16:16:06;1.67;;;1.58;;
13927;SDS011;7036;50.834;4.718;2023-03-23T16:18:33;4.03;;;1.90;;
13927;SDS011;7036;50.834;4.718;2023-03-23T16:21:00;2.03;;;1.48;;
13927;SDS011;7036;50.834;4.718;2023-03-23T16:23:28;2.72;;;1.60;;
13927;SDS011;7036;50.834;4.718;2023-03-23T16:25:56;4.38;;;1.92;;
13927;SDS011;7036;50.834;4.718;2023-03-23T16:28:23;2.65;;;1.63;;
13927;SDS011;7036;50.834;4.718;2023-03-23T16:30:50;4.47;;;1.80;;
13927;SDS011;7036;50.834;4.718;2023-03-23T16:33:18;6.97;;;2.00;;
13927;SDS011;7036;50.834;4.718;2023-03-23T16:35:45;4.45;;;2.22;;
13927;SDS011;7036;50.834;4.718;2023-03-23T16:38:12;4.75;;;2.03;;
13927;SDS011;7036;50.834;4.718;2023-03-23T16:40:39;3.63;;;2.05;;
13927;SDS011;7036;50.834;4.718;2023-03-23T16:43:06;6.07;;;1.95;;
13927;SDS011;7036;50.834;4.718;2023-03-23T16:45:34;4.43;;;2.03;;